Time;durP1;ratioP1;P1;durP2;ratioP2;P2;SDS_P1;SDS_P2;PMS_P1;PMS_P2;Temp;Humidity;BMP_temperature;BMP_pressure;BME280_temperature;BME280_humidity;BME280_pressure;Samples;Min_cycle;Max_cycle;Signal;HPM_P1;HPM_P2
2022/03/14 00:00:58;;;;;;;3.95;1.95;;;12.70;63.70;;;;;;5114723;28;20045;-63
2022/03/14 00:03:25;;;;;;;2.88;1.50;;;12.60;63.90;;;;;;5114598;28;20051;-63
2022/03/14 00:05:51;;;;;;;2.03;1.55;;;12.60;64.30;;;;;;5114668;28;20024;-63
2022/03/14 00:08:18;;;;;;;2.75;1.50;;;12.60;64.90;;;;;;5114633;28;20035;-63
2022/03/14 00:10:45;;;;;;;2.40;1.58;;;12.50;64.90;;;;;;5114555;28;20025;-63
2022/03/14 00:13:12;;;;;;;2.40;1.50;;;12.50;65.00;;;;;;5114406;28;20091;-63
2022/03/14 00:15:40;;;;;;;2.28;1.50;;;12.50;65.20;;;;;;5114457;28;20029;-63
2022/03/14 00:18:06;;;;;;;3.53;1.80;;;12.50;66.10;;;;;;5114432;28;20083;-63
2022/03/14 00:20:32;;;;;;;2.15;1.67;;;12.50;66.00;;;;;;5096630;28;20027;-63
2022/03/14 00:22:58;;;;;;;3.20;1.90;;;12.50;67.10;;;;;;5114329;28;20020;-63
2022/03/14 00:25:26;;;;;;;3.30;2.00;;;12.50;67.00;;;;;;5114211;28;20027;-63
2022/03/14 00:27:53;;;;;;;2.92;2.05;;;12.50;67.30;;;;;;5114369;28;20016;-63
2022/03/14 00:30:19;;;;;;;4.40;1.92;;;12.40;68.30;;;;;;5114221;28;20070;-63
2022/03/14 00:32:44;;;;;;;3.22;2.03;;;12.40;69.40;;;;;;5113758;28;20032;-63
2022/03/14 00:35:11;;;;;;;2.92;2.05;;;12.40;69.00;;;;;;5114093;28;20031;-63
2022/03/14 00:37:38;;;;;;;4.60;2.13;;;12.30;69.10;;;;;;5114040;28;20024;-63
2022/03/14 00:40:07;;;;;;;3.50;2.15;;;12.30;69.00;;;;;;5096199;28;20031;-63
2022/03/14 00:42:34;;;;;;;3.78;2.33;;;12.30;68.70;;;;;;5113996;28;20024;-63
2022/03/14 00:45:00;;;;;;;4.03;2.20;;;12.40;68.80;;;;;;5113966;28;20028;-63
2022/03/14 00:47:28;;;;;;;3.05;1.90;;;12.40;68.90;;;;;;5113898;28;20039;-63
2022/03/14 00:49:53;;;;;;;4.32;2.03;;;12.30;69.10;;;;;;5113890;28;20016;-63
2022/03/14 00:52:19;;;;;;;2.80;2.15;;;12.30;69.40;;;;;;5113804;28;20406;-63
2022/03/14 00:54:45;;;;;;;3.58;2.03;;;12.30;69.40;;;;;;5113829;28;20038;-63
2022/03/14 00:57:11;;;;;;;3.20;2.38;;;12.30;69.40;;;;;;5113721;28;20029;-63
2022/03/14 00:59:39;;;;;;;3.70;2.45;;;12.30;69.30;;;;;;5113722;28;20028;-63
2022/03/14 01:02:06;;;;;;;3.10;2.15;;;12.30;69.10;;;;;;5079226;28;20095;-63
2022/03/14 01:04:31;;;;;;;3.50;2.35;;;12.30;69.10;;;;;;5113507;28;20059;-63
2022/03/14 01:06:57;;;;;;;2.85;2.05;;;12.30;69.40;;;;;;5113716;28;20032;-63
2022/03/14 01:09:23;;;;;;;3.65;2.25;;;12.20;69.60;;;;;;5113563;28;20048;-63
2022/03/14 01:11:48;;;;;;;4.53;2.42;;;12.20;69.70;;;;;;5113475;28;20113;-63
2022/03/14 01:14:14;;;;;;;3.72;2.35;;;12.20;69.40;;;;;;5113649;28;20031;-63
2022/03/14 01:16:40;;;;;;;3.63;2.42;;;12.20;69.80;;;;;;5113506;28;20047;-63
2022/03/14 01:19:10;;;;;;;4.72;2.33;;;12.20;69.80;;;;;;5113473;28;20024;-63
2022/03/14 01:21:38;;;;;;;3.72;2.47;;;12.10;69.70;;;;;;5113507;28;20047;-63
2022/03/14 01:24:04;;;;;;;4.00;2.50;;;12.20;69.40;;;;;;5113405;28;20027;-63
2022/03/14 01:26:29;;;;;;;3.42;2.33;;;12.20;69.50;;;;;;5113376;28;20035;-63
2022/03/14 01:28:55;;;;;;;3.80;2.50;;;12.10;69.90;;;;;;5113341;28;20032;-63
2022/03/14 01:31:21;;;;;;;4.47;2.03;;;12.10;70.10;;;;;;5113241;28;20050;-63
2022/03/14 01:33:46;;;;;;;3.88;2.78;;;12.10;70.30;;;;;;5113292;28;20054;-63
2022/03/14 01:36:12;;;;;;;4.30;2.67;;;12.10;70.10;;;;;;5113278;28;20091;-63
2022/03/14 01:38:37;;;;;;;4.55;2.67;;;12.10;70.10;;;;;;5095408;28;20036;-63
2022/03/14 01:41:03;;;;;;;4.13;2.80;;;12.10;70.20;;;;;;5113265;28;20016;-63
2022/03/14 01:43:29;;;;;;;4.00;2.70;;;12.10;70.10;;;;;;5114401;28;20363;-63
2022/03/14 01:45:57;;;;;;;4.32;2.92;;;12.10;69.90;;;;;;5117360;28;20024;-63
2022/03/14 01:48:24;;;;;;;3.88;2.25;;;12.10;70.20;;;;;;5117314;28;20028;-63
2022/03/14 01:50:51;;;;;;;4.88;2.83;;;12.10;70.00;;;;;;5117286;28;20024;-63
2022/03/14 01:53:19;;;;;;;4.10;2.50;;;12.10;69.70;;;;;;5117276;28;20025;-63
2022/03/14 01:55:47;;;;;;;5.03;2.83;;;12.10;70.00;;;;;;5117261;28;20032;-63
2022/03/14 01:58:13;;;;;;;4.38;2.63;;;12.10;70.30;;;;;;5117161;28;20020;-63
2022/03/14 02:00:39;;;;;;;5.28;2.53;;;12.00;70.50;;;;;;5117189;28;20021;-63
2022/03/14 02:03:05;;;;;;;4.60;2.55;;;12.00;70.40;;;;;;5116899;28;20071;-63
2022/03/14 02:05:33;;;;;;;3.42;2.40;;;12.00;70.10;;;;;;5117056;28;20043;-63
2022/03/14 02:07:58;;;;;;;3.72;2.50;;;12.00;70.30;;;;;;5099553;28;20047;-63
2022/03/14 02:10:24;;;;;;;4.53;2.40;;;12.00;70.30;;;;;;5116898;28;20039;-63
2022/03/14 02:12:49;;;;;;;4.22;2.50;;;11.90;70.40;;;;;;5116775;28;20025;-63
2022/03/14 02:15:15;;;;;;;4.22;2.50;;;11.90;70.60;;;;;;5116833;28;20024;-63
2022/03/14 02:17:41;;;;;;;4.50;2.67;;;11.90;70.30;;;;;;5116770;28;20040;-63
2022/03/14 02:20:07;;;;;;;3.80;2.40;;;11.90;70.70;;;;;;5116713;28;20024;-63
2022/03/14 02:22:33;;;;;;;4.43;2.53;;;11.90;70.50;;;;;;5116670;28;20034;-63
2022/03/14 02:24:58;;;;;;;4.07;2.90;;;11.90;70.70;;;;;;5116563;28;20051;-63
2022/03/14 02:27:24;;;;;;;4.70;2.50;;;11.90;70.90;;;;;;5116569;28;20039;-63
2022/03/14 02:29:50;;;;;;;4.97;2.40;;;11.90;70.60;;;;;;5116533;28;20024;-63
2022/03/14 02:32:15;;;;;;;4.85;2.72;;;11.90;70.50;;;;;;5116392;28;20036;-63
2022/03/14 02:34:41;;;;;;;5.30;2.60;;;11.90;70.90;;;;;;5116453;28;20024;-63
2022/03/14 02:37:08;;;;;;;3.92;2.50;;;11.80;71.50;;;;;;5116393;28;20020;-63
2022/03/14 02:39:34;;;;;;;4.47;2.63;;;11.80;71.60;;;;;;5116366;28;20027;-63
2022/03/14 02:42:01;;;;;;;3.35;2.22;;;11.80;71.70;;;;;;5116304;28;20020;-63
2022/03/14 02:44:27;;;;;;;4.10;2.67;;;11.80;72.20;;;;;;5116295;28;20035;-63
2022/03/14 02:46:53;;;;;;;4.30;2.67;;;11.80;72.20;;;;;;5116252;28;20083;-63
2022/03/14 02:49:19;;;;;;;3.58;2.40;;;11.70;72.80;;;;;;5098202;28;20028;-63
2022/03/14 02:51:46;;;;;;;4.22;2.47;;;11.70;72.20;;;;;;5116063;28;20487;-63
2022/03/14 02:54:12;;;;;;;3.90;2.63;;;11.70;72.60;;;;;;5115909;28;20374;-63
2022/03/14 02:56:39;;;;;;;4.63;2.38;;;11.80;72.20;;;;;;5116024;28;20024;-63
2022/03/14 02:59:06;;;;;;;4.88;2.20;;;11.80;72.20;;;;;;5115967;28;20024;-63
2022/03/14 03:01:33;;;;;;;3.45;2.35;;;11.70;72.40;;;;;;5115948;28;20024;-63
2022/03/14 03:03:58;;;;;;;3.80;2.40;;;11.80;72.20;;;;;;5115706;28;20044;-63
2022/03/14 03:06:24;;;;;;;3.40;2.35;;;11.80;72.20;;;;;;5115868;28;20372;-63
2022/03/14 03:08:50;;;;;;;3.72;2.40;;;11.80;72.60;;;;;;5115820;28;20024;-63
2022/03/14 03:11:16;;;;;;;4.65;2.65;;;11.80;72.50;;;;;;5115695;28;20031;-63
2022/03/14 03:13:43;;;;;;;4.20;2.50;;;11.70;72.40;;;;;;5115699;28;20047;-63
2022/03/14 03:16:13;;;;;;;4.97;2.90;;;11.70;72.20;;;;;;5115671;28;20077;-63
2022/03/14 03:18:39;;;;;;;3.85;2.40;;;11.70;72.20;;;;;;5115675;28;20035;-63
2022/03/14 03:21:04;;;;;;;3.88;2.65;;;11.70;72.40;;;;;;5115542;28;20031;-63
2022/03/14 03:23:30;;;;;;;3.60;2.50;;;11.70;72.70;;;;;;5115531;28;20028;-63
2022/03/14 03:25:56;;;;;;;4.68;2.70;;;11.60;72.70;;;;;;5115373;28;20020;-63
2022/03/14 03:28:22;;;;;;;5.57;2.95;;;11.70;72.70;;;;;;5115420;28;20020;-63
2022/03/14 03:30:48;;;;;;;4.95;2.90;;;11.60;73.00;;;;;;5115412;28;20054;-63
2022/03/14 03:33:15;;;;;;;4.28;2.88;;;11.60;73.30;;;;;;5115245;28;20032;-63
2022/03/14 03:35:40;;;;;;;5.10;3.10;;;11.60;73.10;;;;;;5115317;28;20031;-63
2022/03/14 03:38:06;;;;;;;4.60;2.50;;;11.70;72.90;;;;;;5115332;28;20047;-63
2022/03/14 03:40:32;;;;;;;4.68;2.80;;;11.60;73.10;;;;;;5115179;28;20039;-63
2022/03/14 03:42:57;;;;;;;5.07;2.67;;;11.60;73.30;;;;;;5115241;28;20032;-63
2022/03/14 03:45:23;;;;;;;3.72;2.45;;;11.60;73.30;;;;;;5115111;28;20162;-63
2022/03/14 03:47:49;;;;;;;4.65;2.70;;;11.60;73.30;;;;;;5115008;28;20032;-63
2022/03/14 03:50:16;;;;;;;7.47;2.88;;;11.60;73.30;;;;;;5115010;28;20028;-63
2022/03/14 03:52:42;;;;;;;5.25;2.70;;;11.60;73.30;;;;;;5114897;28;20028;-63
2022/03/14 03:55:09;;;;;;;4.30;2.70;;;11.60;73.30;;;;;;5114911;28;20031;-63
2022/03/14 03:57:35;;;;;;;4.00;2.55;;;11.60;73.30;;;;;;5114989;28;20039;-63
2022/03/14 04:00:04;;;;;;;5.30;2.83;;;11.60;73.60;;;;;;5114808;28;20020;-63
2022/03/14 04:02:35;;;;;;;4.63;2.75;;;11.50;73.50;;;;;;5114753;28;20032;-63
2022/03/14 04:05:00;;;;;;;5.22;2.88;;;11.50;73.80;;;;;;5114510;28;20052;-63
2022/03/14 04:07:26;;;;;;;4.07;2.85;;;11.60;73.50;;;;;;5114006;28;20120;-63
2022/03/14 04:09:55;;;;;;;4.45;2.75;;;11.60;74.30;;;;;;5114598;28;20034;-63
2022/03/14 04:12:26;;;;;;;3.92;2.70;;;11.60;73.10;;;;;;5114470;28;20016;-63
2022/03/14 04:14:58;;;;;;;4.38;2.85;;;11.50;72.80;;;;;;5114560;28;20024;-63
2022/03/14 04:17:25;;;;;;;4.95;3.00;;;11.60;72.40;;;;;;5114679;28;20024;-63
2022/03/14 04:19:52;;;;;;;5.47;3.15;;;11.60;72.40;;;;;;5114433;28;20020;-63
2022/03/14 04:22:21;;;;;;;3.95;2.53;;;11.50;73.00;;;;;;5114408;28;20025;-63
2022/03/14 04:24:47;;;;;;;5.07;2.55;;;11.40;73.60;;;;;;5114255;28;20067;-63
2022/03/14 04:27:12;;;;;;;4.28;2.88;;;11.30;73.90;;;;;;5114297;28;20024;-63
2022/03/14 04:29:38;;;;;;;3.97;2.78;;;11.30;74.30;;;;;;5114244;28;20024;-63
2022/03/14 04:32:04;;;;;;;5.15;3.15;;;11.30;74.50;;;;;;5096261;28;20028;-63
2022/03/14 04:34:30;;;;;;;5.70;2.80;;;11.20;74.60;;;;;;5114147;28;20016;-63
2022/03/14 04:36:57;;;;;;;5.07;2.78;;;11.20;74.80;;;;;;5114080;28;20020;-63
2022/03/14 04:39:23;;;;;;;6.00;3.30;;;11.20;74.80;;;;;;5114115;28;20020;-63
2022/03/14 04:41:49;;;;;;;4.93;3.30;;;11.20;75.00;;;;;;5114020;28;20038;-63
2022/03/14 04:44:16;;;;;;;4.32;2.95;;;11.10;75.40;;;;;;5114061;28;20024;-63
2022/03/14 04:46:42;;;;;;;4.22;2.63;;;11.00;75.30;;;;;;5114041;28;20079;-63
2022/03/14 04:49:08;;;;;;;5.10;3.22;;;11.00;75.80;;;;;;5113902;28;20028;-63
2022/03/14 04:51:34;;;;;;;5.60;3.22;;;11.00;75.80;;;;;;5113788;28;20020;-63
2022/03/14 04:54:00;;;;;;;4.50;3.00;;;11.00;75.90;;;;;;5113838;28;20074;-63
2022/03/14 04:56:25;;;;;;;4.60;3.20;;;11.00;75.70;;;;;;5113806;28;20032;-63
2022/03/14 04:58:52;;;;;;;5.18;3.40;;;11.00;76.00;;;;;;5095939;28;20028;-63
2022/03/14 05:01:20;;;;;;;5.63;3.35;;;11.00;76.20;;;;;;5113702;28;20028;-63
2022/03/14 05:03:45;;;;;;;4.80;3.22;;;11.00;76.00;;;;;;5113628;28;20054;-63
2022/03/14 05:06:11;;;;;;;5.78;3.50;;;11.00;76.20;;;;;;5113635;28;20024;-63
2022/03/14 05:08:37;;;;;;;4.80;3.28;;;11.00;75.90;;;;;;5113583;28;20032;-63
2022/03/14 05:11:04;;;;;;;5.13;3.33;;;11.00;76.40;;;;;;5113567;28;20055;-63
2022/03/14 05:13:30;;;;;;;6.20;3.72;;;11.00;77.10;;;;;;5113484;28;20083;-63
2022/03/14 05:15:55;;;;;;;6.82;4.32;;;10.90;76.90;;;;;;5113515;28;20024;-63
2022/03/14 05:18:21;;;;;;;5.47;3.75;;;10.90;77.00;;;;;;5113468;28;20025;-63
2022/03/14 05:20:46;;;;;;;8.07;4.40;;;10.80;77.90;;;;;;5113469;28;20024;-63
2022/03/14 05:23:13;;;;;;;6.95;4.47;;;10.80;78.60;;;;;;5113421;28;20051;-63
2022/03/14 05:25:39;;;;;;;6.63;4.22;;;10.70;78.60;;;;;;5113339;28;20028;-63
2022/03/14 05:28:04;;;;;;;5.85;4.38;;;10.70;79.10;;;;;;5113329;28;20062;-63
2022/03/14 05:30:30;;;;;;;7.75;4.22;;;10.70;78.60;;;;;;5113309;28;20039;-63
2022/03/14 05:32:56;;;;;;;6.70;4.25;;;10.70;79.10;;;;;;5113270;28;20036;-63
2022/03/14 05:35:22;;;;;;;7.63;4.20;;;10.70;78.30;;;;;;5113308;28;20016;-63
2022/03/14 05:37:48;;;;;;;7.18;4.57;;;10.70;79.20;;;;;;5113243;28;20487;-63
2022/03/14 05:40:15;;;;;;;11.00;4.90;;;10.70;79.40;;;;;;5113244;28;20031;-63
2022/03/14 05:42:43;;;;;;;8.82;4.90;;;10.60;79.60;;;;;;5113237;28;20016;-63
2022/03/14 05:45:09;;;;;;;8.15;5.15;;;10.60;79.60;;;;;;5113207;28;20020;-63
2022/03/14 05:47:35;;;;;;;9.38;5.45;;;10.70;78.80;;;;;;5113178;28;20032;-63
2022/03/14 05:50:01;;;;;;;9.60;4.82;;;10.70;78.70;;;;;;5113107;28;20025;-63
2022/03/14 05:52:27;;;;;;;8.45;5.18;;;10.70;78.90;;;;;;5113011;28;20028;-63
2022/03/14 05:54:53;;;;;;;7.40;4.95;;;10.80;78.40;;;;;;5113125;28;20019;-63
2022/03/14 05:57:18;;;;;;;10.50;5.28;;;10.80;78.20;;;;;;5113072;28;20028;-63
2022/03/14 05:59:44;;;;;;;8.00;5.25;;;10.80;79.10;;;;;;5113068;28;20174;-63
2022/03/14 06:02:10;;;;;;;8.43;5.45;;;10.80;78.20;;;;;;5113038;28;20079;-63
2022/03/14 06:04:39;;;;;;;10.95;5.88;;;10.80;78.10;;;;;;5112733;28;20067;-63
2022/03/14 06:07:05;;;;;;;8.57;5.30;;;10.80;77.70;;;;;;5113040;28;20083;-63
2022/03/14 06:09:31;;;;;;;10.27;5.57;;;10.90;77.40;;;;;;5112994;28;20024;-63
2022/03/14 06:11:56;;;;;;;10.05;6.05;;;10.90;77.50;;;;;;5112884;28;20065;-63
2022/03/14 06:14:22;;;;;;;9.95;5.38;;;10.80;77.70;;;;;;5113043;28;20036;-63
2022/03/14 06:16:48;;;;;;;9.50;5.35;;;10.80;77.90;;;;;;5112916;28;20058;-63
2022/03/14 06:19:14;;;;;;;8.57;5.22;;;10.80;77.70;;;;;;5112917;28;20031;-63
2022/03/14 06:21:39;;;;;;;11.25;5.75;;;10.70;77.90;;;;;;5112901;28;20028;-63
2022/03/14 06:24:08;;;;;;;9.73;5.43;;;10.80;77.70;;;;;;5112864;28;20100;-63
2022/03/14 06:26:34;;;;;;;9.68;5.75;;;10.80;77.90;;;;;;5112843;28;20050;-63
2022/03/14 06:29:00;;;;;;;11.40;6.47;;;10.80;77.60;;;;;;5113140;28;20036;-63
2022/03/14 06:31:26;;;;;;;10.05;5.72;;;10.80;77.70;;;;;;5116457;28;20096;-63
2022/03/14 06:33:52;;;;;;;11.02;6.50;;;10.70;78.10;;;;;;5116465;28;20024;-63
2022/03/14 06:36:18;;;;;;;11.15;5.93;;;10.70;78.00;;;;;;5116371;28;20087;-63
2022/03/14 06:38:45;;;;;;;11.70;6.15;;;10.70;78.30;;;;;;5116361;28;20027;-63
2022/03/14 06:41:11;;;;;;;9.88;6.28;;;10.70;77.90;;;;;;5116372;28;20040;-63
2022/03/14 06:43:37;;;;;;;11.02;6.53;;;10.70;78.10;;;;;;5116205;28;20414;-63
2022/03/14 06:46:04;;;;;;;11.02;6.43;;;10.70;78.10;;;;;;5116223;28;20052;-63
2022/03/14 06:48:30;;;;;;;11.05;6.45;;;10.70;77.90;;;;;;5116301;28;20020;-63
2022/03/14 06:50:56;;;;;;;10.63;6.22;;;10.70;77.90;;;;;;5116169;28;20035;-63
2022/03/14 06:53:22;;;;;;;12.75;7.40;;;10.70;77.80;;;;;;5116019;28;20032;-63
2022/03/14 06:55:47;;;;;;;14.65;7.50;;;10.80;77.90;;;;;;5098364;28;20024;-63
2022/03/14 06:58:13;;;;;;;14.13;7.35;;;10.70;78.10;;;;;;5116023;28;20035;-62
2022/03/14 07:00:39;;;;;;;13.88;7.88;;;10.80;78.00;;;;;;5115961;28;20088;-62
2022/03/14 07:03:06;;;;;;;13.20;7.93;;;10.70;78.30;;;;;;5115889;28;20047;-62
2022/03/14 07:05:33;;;;;;;14.88;7.50;;;10.70;78.30;;;;;;5115686;28;20060;-62
2022/03/14 07:07:58;;;;;;;14.30;8.15;;;10.80;78.20;;;;;;5115940;28;20032;-62
2022/03/14 07:10:24;;;;;;;11.70;7.45;;;10.70;78.30;;;;;;5115800;28;20040;-63
2022/03/14 07:12:50;;;;;;;18.83;8.57;;;10.70;78.50;;;;;;5115618;28;20032;-62
2022/03/14 07:15:21;;;;;;;16.60;8.52;;;10.70;78.40;;;;;;5115697;28;20016;-62
2022/03/14 07:17:47;;;;;;;13.95;8.50;;;10.80;78.60;;;;;;5115659;28;20052;-62
2022/03/14 07:20:13;;;;;;;17.75;8.70;;;10.80;78.30;;;;;;5115589;28;20024;-62
2022/03/14 07:23:08;;;;;;;16.15;8.48;;;10.80;78.10;;;;;;5115637;28;20059;-62
2022/03/14 07:25:40;;;;;;;15.23;8.80;;;10.80;78.40;;;;;;5097998;28;20036;-62
2022/03/14 07:28:10;;;;;;;17.50;8.80;;;10.80;78.20;;;;;;5115524;28;20035;-62
2022/03/14 07:30:38;;;;;;;14.68;8.52;;;10.80;78.40;;;;;;5115453;28;20040;-62
2022/03/14 07:33:04;;;;;;;15.63;8.63;;;10.80;78.30;;;;;;5115322;28;20024;-62
2022/03/14 07:35:30;;;;;;;15.57;8.75;;;10.80;78.60;;;;;;5115338;28;20088;-63
2022/03/14 07:37:56;;;;;;;16.80;9.30;;;10.80;78.30;;;;;;5115243;28;20020;-63
2022/03/14 07:40:21;;;;;;;17.25;9.00;;;10.80;78.30;;;;;;5114702;28;20020;-62
2022/03/14 07:42:50;;;;;;;18.10;9.10;;;10.80;78.10;;;;;;5114619;28;20028;-62
2022/03/14 07:45:20;;;;;;;15.48;8.55;;;10.80;78.40;;;;;;5115126;28;20035;-62
2022/03/14 07:47:45;;;;;;;15.50;8.30;;;10.80;78.20;;;;;;5115144;28;20020;-62
2022/03/14 07:50:14;;;;;;;14.80;7.80;;;10.80;77.90;;;;;;5114986;28;20111;-62
2022/03/14 07:52:40;;;;;;;17.45;9.10;;;10.90;77.70;;;;;;5114821;28;20032;-62
2022/03/14 07:55:07;;;;;;;15.40;9.23;;;10.90;77.80;;;;;;5114928;28;20076;-62
2022/03/14 07:57:37;;;;;;;15.77;8.65;;;10.90;77.80;;;;;;5097028;28;20027;-62
2022/03/14 08:00:06;;;;;;;18.90;9.70;;;10.90;77.80;;;;;;5114841;28;20028;-62
2022/03/14 08:02:32;;;;;;;19.05;9.15;;;10.90;77.60;;;;;;5114778;28;20080;-62
2022/03/14 08:04:57;;;;;;;19.13;9.65;;;10.90;77.70;;;;;;5114518;28;20078;-62
2022/03/14 08:07:23;;;;;;;20.48;10.57;;;10.90;77.70;;;;;;5114700;28;20043;-62
2022/03/14 08:09:49;;;;;;;23.33;8.57;;;10.90;77.30;;;;;;5114568;28;20032;-62
2022/03/14 08:12:15;;;;;;;17.92;9.45;;;11.00;77.50;;;;;;5114447;28;20035;-62
2022/03/14 08:14:41;;;;;;;18.13;9.93;;;11.00;77.00;;;;;;5114557;28;20020;-62
2022/03/14 08:17:07;;;;;;;16.63;9.38;;;11.00;77.00;;;;;;5114500;28;20077;-62
2022/03/14 08:19:34;;;;;;;19.75;10.20;;;11.00;76.90;;;;;;5114514;28;20087;-62
2022/03/14 08:22:01;;;;;;;16.48;9.27;;;11.00;76.90;;;;;;5114430;28;20024;-63
2022/03/14 08:24:27;;;;;;;20.80;10.27;;;11.00;76.90;;;;;;5114273;28;20020;-63
2022/03/14 08:26:53;;;;;;;23.80;9.82;;;11.00;76.90;;;;;;5114334;28;20052;-62
2022/03/14 08:29:19;;;;;;;21.17;10.88;;;11.00;76.90;;;;;;5096275;28;20051;-63
2022/03/14 08:31:44;;;;;;;20.27;9.07;;;11.10;76.60;;;;;;5114276;28;20032;-63
2022/03/14 08:34:11;;;;;;;21.20;10.27;;;11.20;76.60;;;;;;5114205;28;20026;-62
2022/03/14 08:36:40;;;;;;;20.35;11.15;;;11.10;76.70;;;;;;5114155;28;20035;-62
2022/03/14 08:39:07;;;;;;;20.05;10.15;;;11.10;77.00;;;;;;5114141;28;20065;-62
2022/03/14 08:41:32;;;;;;;20.40;10.50;;;11.10;76.40;;;;;;5114057;28;20016;-63
2022/03/14 08:43:58;;;;;;;18.50;9.68;;;11.00;76.50;;;;;;5114016;28;20053;-62
2022/03/14 08:46:24;;;;;;;21.33;11.32;;;11.10;76.30;;;;;;5114009;28;20039;-62
2022/03/14 08:48:49;;;;;;;22.83;10.98;;;11.20;76.40;;;;;;5113946;28;20032;-62
2022/03/14 08:51:16;;;;;;;21.98;10.55;;;11.20;76.20;;;;;;5113900;28;20016;-62
2022/03/14 08:53:41;;;;;;;22.80;10.50;;;11.20;75.50;;;;;;5113517;28;20032;-62
2022/03/14 08:56:07;;;;;;;20.33;11.20;;;11.30;75.10;;;;;;5113810;28;20027;-62
2022/03/14 08:58:33;;;;;;;24.40;10.80;;;11.30;75.00;;;;;;5113802;28;20513;-63
2022/03/14 09:00:59;;;;;;;22.63;10.70;;;11.30;75.00;;;;;;5095976;28;20047;-63
2022/03/14 09:03:26;;;;;;;21.75;12.13;;;11.30;75.40;;;;;;5113822;28;20016;-63
2022/03/14 09:05:56;;;;;;;23.55;11.07;;;11.30;75.30;;;;;;5113540;28;20418;-62
2022/03/14 09:08:24;;;;;;;22.15;11.68;;;11.30;75.00;;;;;;5113675;28;20092;-62
2022/03/14 09:10:50;;;;;;;21.52;10.95;;;11.30;75.30;;;;;;5113594;28;20024;-63
2022/03/14 09:13:18;;;;;;;22.85;11.50;;;11.30;75.10;;;;;;5113480;28;20118;-63
2022/03/14 09:15:43;;;;;;;24.35;11.45;;;11.30;75.30;;;;;;5113708;28;20024;-63
2022/03/14 09:18:09;;;;;;;22.60;10.88;;;11.30;75.50;;;;;;5113403;28;20095;-63
2022/03/14 09:20:39;;;;;;;22.23;11.57;;;11.30;75.60;;;;;;5113562;28;20024;-62
2022/03/14 09:23:06;;;;;;;21.73;10.32;;;11.40;75.30;;;;;;5113638;28;20020;-62
2022/03/14 09:25:32;;;;;;;19.17;10.00;;;11.40;75.30;;;;;;5113325;28;20034;-62
2022/03/14 09:27:58;;;;;;;22.95;11.40;;;11.50;74.90;;;;;;5113411;28;20099;-62
2022/03/14 09:30:25;;;;;;;21.92;11.02;;;11.50;74.90;;;;;;5113351;28;20016;-62
2022/03/14 09:32:51;;;;;;;16.60;7.55;;;11.50;75.10;;;;;;5113240;28;20055;-62
2022/03/14 09:35:18;;;;;;;21.92;10.40;;;11.50;74.80;;;;;;5113303;28;20024;-63
2022/03/14 09:37:45;;;;;;;20.42;10.05;;;11.50;74.40;;;;;;5113312;28;20027;-62
2022/03/14 09:40:17;;;;;;;18.90;10.18;;;11.50;74.50;;;;;;5113275;28;20024;-63
2022/03/14 09:42:46;;;;;;;16.65;9.82;;;11.50;74.50;;;;;;5113337;28;20050;-63
2022/03/14 09:45:14;;;;;;;18.85;9.80;;;11.60;74.30;;;;;;5113289;28;20039;-62
2022/03/14 09:47:42;;;;;;;20.73;11.13;;;11.60;74.30;;;;;;5113324;28;20490;-62
2022/03/14 09:50:12;;;;;;;18.05;10.18;;;11.60;74.20;;;;;;5113210;28;20043;-63
2022/03/14 09:52:40;;;;;;;18.02;9.52;;;11.60;74.60;;;;;;5113092;28;20083;-63
2022/03/14 09:55:08;;;;;;;17.85;9.73;;;11.60;74.10;;;;;;5113121;28;20050;-62
2022/03/14 09:57:36;;;;;;;18.95;9.98;;;11.70;73.90;;;;;;5113187;28;20028;-63
2022/03/14 10:00:03;;;;;;;20.02;9.63;;;11.70;74.00;;;;;;5113066;28;20036;-62
2022/03/14 10:02:29;;;;;;;17.25;9.40;;;11.70;73.60;;;;;;5113051;28;20031;-62
2022/03/14 10:04:55;;;;;;;19.08;9.75;;;11.70;73.30;;;;;;5114741;28;20067;-63
2022/03/14 10:07:21;;;;;;;18.30;9.15;;;11.70;73.70;;;;;;5117040;28;20035;-63
2022/03/14 10:09:47;;;;;;;19.55;9.68;;;11.70;73.70;;;;;;5117000;28;20024;-63
2022/03/14 10:12:15;;;;;;;19.55;9.90;;;11.70;73.50;;;;;;5116895;28;20028;-63
2022/03/14 10:14:41;;;;;;;17.45;9.60;;;11.80;73.90;;;;;;5116926;28;20024;-63
2022/03/14 10:17:06;;;;;;;20.65;9.65;;;11.80;73.60;;;;;;5116824;28;20086;-63
2022/03/14 10:19:36;;;;;;;15.07;7.75;;;11.90;73.80;;;;;;5116798;28;20020;-62
2022/03/14 10:22:22;;;;;;;21.20;9.15;;;11.90;73.20;;;;;;5099279;28;20026;-63
2022/03/14 10:24:48;;;;;;;19.58;8.65;;;11.90;73.30;;;;;;5116399;28;20043;-62
2022/03/14 10:27:18;;;;;;;15.73;8.60;;;11.90;72.70;;;;;;5116657;28;20024;-63
2022/03/14 10:29:49;;;;;;;13.13;8.02;;;11.90;72.60;;;;;;5116615;28;20028;-62
2022/03/14 10:32:31;;;;;;;17.73;8.00;;;11.90;72.30;;;;;;5116489;28;20050;-62
2022/03/14 10:35:04;;;;;;;15.07;7.10;;;12.10;72.90;;;;;;5116614;28;20464;-63
2022/03/14 10:37:34;;;;;;;12.70;6.88;;;12.10;71.30;;;;;;5116592;28;20009;-62
2022/03/14 10:40:08;;;;;;;13.80;7.45;;;12.20;71.70;;;;;;5116409;28;20016;-62
2022/03/14 10:42:39;;;;;;;14.68;6.43;;;12.20;70.60;;;;;;5116424;28;20031;-62
2022/03/14 10:45:12;;;;;;;12.70;6.73;;;12.20;70.30;;;;;;5116360;28;20070;-62
2022/03/14 10:47:46;;;;;;;11.60;5.43;;;12.30;70.10;;;;;;5116246;28;20649;-62
2022/03/14 10:50:35;;;;;;;14.80;6.50;;;12.30;69.70;;;;;;5116186;28;20062;-62
2022/03/14 10:53:11;;;;;;;13.20;6.43;;;12.30;69.40;;;;;;5116135;28;20035;-63
2022/03/14 10:55:42;;;;;;;14.70;7.03;;;12.30;68.80;;;;;;5116176;28;20016;-63
2022/03/14 10:58:14;;;;;;;12.83;6.73;;;12.40;69.60;;;;;;5116269;28;20050;-62
2022/03/14 11:00:56;;;;;;;13.38;7.03;;;12.40;69.40;;;;;;5116198;28;20024;-62
2022/03/14 11:03:29;;;;;;;11.40;6.35;;;12.50;69.00;;;;;;5116048;28;20032;-63
2022/03/14 11:06:05;;;;;;;13.23;6.40;;;12.50;68.70;;;;;;5115827;28;20059;-63
2022/03/14 11:08:35;;;;;;;10.55;5.85;;;12.50;69.10;;;;;;5115964;28;20048;-63
2022/03/14 11:11:06;;;;;;;11.68;5.38;;;12.50;68.70;;;;;;5115813;28;20077;-63
2022/03/14 11:13:36;;;;;;;13.23;5.88;;;12.60;69.00;;;;;;5115733;28;20111;-62
2022/03/14 11:16:02;;;;;;;12.15;4.82;;;12.60;68.90;;;;;;5115645;28;20024;-63
2022/03/14 11:18:29;;;;;;;10.55;5.03;;;12.50;67.30;;;;;;5115660;28;20051;-63
2022/03/14 11:20:57;;;;;;;11.13;5.38;;;12.60;67.90;;;;;;5115636;28;20056;-62
2022/03/14 11:23:24;;;;;;;9.98;5.18;;;12.70;67.30;;;;;;5115610;28;20534;-63
2022/03/14 11:25:50;;;;;;;11.13;5.28;;;12.90;67.80;;;;;;5115477;28;20074;-63
2022/03/14 11:28:20;;;;;;;11.63;5.28;;;13.10;68.00;;;;;;5115496;28;20024;-62
2022/03/14 11:30:57;;;;;;;10.55;5.10;;;13.20;65.80;;;;;;5115460;28;20044;-62
2022/03/14 11:33:23;;;;;;;9.02;4.75;;;13.30;65.90;;;;;;5115409;28;20039;-63
2022/03/14 11:35:50;;;;;;;8.65;4.68;;;13.30;65.60;;;;;;5115357;28;20534;-63
2022/03/14 11:38:17;;;;;;;9.13;4.90;;;13.30;64.70;;;;;;5115301;28;20024;-63
2022/03/14 11:40:43;;;;;;;9.45;3.72;;;13.30;64.90;;;;;;5115239;28;20056;-63
2022/03/14 11:43:09;;;;;;;7.68;4.70;;;13.40;64.10;;;;;;5115336;28;20028;-62
2022/03/14 11:45:36;;;;;;;10.82;4.97;;;13.40;64.10;;;;;;5115183;28;20034;-63
2022/03/14 11:48:04;;;;;;;10.32;4.60;;;13.50;63.60;;;;;;5115131;28;20028;-63
2022/03/14 11:50:41;;;;;;;9.55;4.90;;;13.40;62.90;;;;;;5115051;28;20052;-62
2022/03/14 11:53:06;;;;;;;9.48;5.10;;;13.40;62.90;;;;;;5114966;28;20028;-63
2022/03/14 11:55:32;;;;;;;9.73;5.85;;;13.40;63.60;;;;;;5114936;28;20020;-62
2022/03/14 11:57:58;;;;;;;10.80;5.80;;;13.30;63.40;;;;;;5114812;28;20028;-63
2022/03/14 12:00:27;;;;;;;8.52;5.38;;;13.30;64.00;;;;;;5114832;28;20020;-62
2022/03/14 12:02:58;;;;;;;8.65;5.80;;;13.40;62.70;;;;;;5114767;28;20023;-63
2022/03/14 12:05:38;;;;;;;9.40;5.50;;;13.40;63.40;;;;;;5114552;28;20040;-63
2022/03/14 12:08:15;;;;;;;8.43;4.90;;;13.40;63.10;;;;;;5114837;28;20038;-63
2022/03/14 12:10:41;;;;;;;9.65;5.22;;;13.50;63.30;;;;;;5114647;28;20028;-63
2022/03/14 12:13:07;;;;;;;10.63;4.90;;;13.60;62.20;;;;;;5114560;28;20028;-63
2022/03/14 12:15:48;;;;;;;12.50;5.25;;;13.60;61.70;;;;;;5114553;28;20024;-62
2022/03/14 12:18:38;;;;;;;10.18;4.95;;;13.60;60.50;;;;;;5096514;28;20035;-62
2022/03/14 12:21:42;;;;;;;10.40;5.03;;;13.60;60.50;;;;;;5102663;28;20092;-63
2022/03/14 12:24:08;;;;;;;8.10;4.38;;;13.50;60.20;;;;;;5114351;28;20038;-62
2022/03/14 12:26:34;;;;;;;8.18;4.07;;;13.50;60.30;;;;;;5114076;28;20024;-63
2022/03/14 12:29:36;;;;;;;9.10;4.55;;;13.30;61.20;;;;;;5114055;28;20028;-62
2022/03/14 12:32:33;;;;;;;7.43;4.33;;;13.20;61.70;;;;;;5114385;28;20020;-62
2022/03/14 12:35:27;;;;;;;8.40;4.20;;;13.20;62.20;;;;;;5114272;28;20088;-62
2022/03/14 12:38:11;;;;;;;10.27;4.43;;;13.20;62.00;;;;;;5096267;28;20028;-62
2022/03/14 12:40:36;;;;;;;10.98;4.55;;;13.20;61.90;;;;;;5114111;28;20024;-62
2022/03/14 12:43:09;;;;;;;8.55;4.88;;;13.20;61.70;;;;;;5114001;28;20084;-62